Time;durP1;ratioP1;P1;durP2;ratioP2;P2;SDS_P1;SDS_P2;PMS_P1;PMS_P2;Temp;Humidity;BMP_temperature;BMP_pressure;BME280_temperature;BME280_humidity;BME280_pressure;Samples;Min_cycle;Max_cycle;Signal;HPM_P1;HPM_P2
2021/11/15 00:01:58;;;;;;;;;;;18.10;73.00;;;;;;5078341;28;19973;-51
2021/11/15 00:04:25;;;;;;;;;;;18.10;73.10;;;;;;5093078;28;19963;-52
2021/11/15 00:06:52;;;;;;;;;;;18.10;73.00;;;;;;5095761;28;19924;-49
2021/11/15 00:09:19;;;;;;;;;;;18.10;73.00;;;;;;5095737;28;19931;-54
2021/11/15 00:11:46;;;;;;;;;;;18.10;73.00;;;;;;5095701;28;19931;-54
2021/11/15 00:14:14;;;;;;;;;;;18.10;73.70;;;;;;5095585;28;19932;-54
2021/11/15 00:16:41;;;;;;;;;;;18.10;73.00;;;;;;5095870;28;19924;-52
2021/11/15 00:19:08;;;;;;;;;;;18.10;73.00;;;;;;5095842;28;19974;-50
2021/11/15 00:21:35;;;;;;;;;;;18.10;73.00;;;;;;5092807;28;19946;-47
2021/11/15 00:24:02;;;;;;;;;;;18.10;73.10;;;;;;5095600;28;19931;-55
2021/11/15 00:26:29;;;;;;;;;;;18.10;73.10;;;;;;5095732;28;19989;-55
2021/11/15 00:28:57;;;;;;;;;;;18.10;73.10;;;;;;5095346;28;19924;-55
2021/11/15 00:31:24;;;;;;;;;;;18.10;73.10;;;;;;5095612;28;19924;-55
2021/11/15 00:33:52;;;;;;;;;;;18.10;73.10;;;;;;5095371;28;20333;-55
2021/11/15 00:36:20;;;;;;;;;;;18.10;73.10;;;;;;5092551;28;19924;-52
2021/11/15 00:38:48;;;;;;;;;;;18.10;73.00;;;;;;5095166;28;19932;-50
2021/11/15 00:41:15;;;;;;;;;;;18.10;73.00;;;;;;5095393;28;19924;-50
2021/11/15 00:43:42;;;;;;;;;;;18.10;73.10;;;;;;5095300;28;19928;-50
2021/11/15 00:46:09;;;;;;;;;;;18.10;73.10;;;;;;5095523;28;19927;-55
2021/11/15 00:48:36;;;;;;;;;;;18.10;73.10;;;;;;5094970;28;19973;-54
2021/11/15 00:51:03;;;;;;;;;;;18.10;73.00;;;;;;5092273;28;19931;-47
2021/11/15 00:53:30;;;;;;;;;;;18.10;73.10;;;;;;5094571;28;20375;-50
2021/11/15 00:55:57;;;;;;;;;;;18.10;73.10;;;;;;5073442;28;20331;-52
2021/11/15 00:58:24;;;;;;;;;;;18.10;73.00;;;;;;5074789;28;19925;-53
2021/11/15 01:00:51;;;;;;;;;;;18.10;73.10;;;;;;5074775;28;20280;-52
2021/11/15 01:03:19;;;;;;;;;;;18.10;73.10;;;;;;5074654;28;19968;-49
2021/11/15 01:05:48;;;;;;;;;;;18.10;73.10;;;;;;5072154;28;19974;-49
2021/11/15 01:08:16;;;;;;;;;;;18.10;73.10;;;;;;5074335;28;20392;-49
2021/11/15 01:10:45;;;;;;;;;;;18.10;73.10;;;;;;5073684;28;19925;-51
2021/11/15 01:13:12;;;;;;;;;;;18.10;73.10;;;;;;5074442;28;20380;-51
2021/11/15 01:15:39;;;;;;;;;;;18.10;73.10;;;;;;5074186;28;20383;-49
2021/11/15 01:18:08;;;;;;;;;;;18.10;73.10;;;;;;5074522;28;19924;-48
2021/11/15 01:20:35;;;;;;;;;;;18.10;73.10;;;;;;5071493;28;20384;-50
2021/11/15 01:23:05;;;;;;;;;;;18.10;73.10;;;;;;5074124;28;19925;-53
2021/11/15 01:25:32;;;;;;;;;;;18.10;73.10;;;;;;5074379;28;19928;-52
2021/11/15 01:27:59;;;;;;;;;;;18.10;73.10;;;;;;5074320;28;19932;-46
2021/11/15 01:30:27;;;;;;;;;;;18.10;73.10;;;;;;5074011;28;19924;-51
2021/11/15 01:32:54;;;;;;;;;;;18.10;73.10;;;;;;5074166;28;20291;-49
2021/11/15 01:35:22;;;;;;;;;;;18.10;73.20;;;;;;5071519;28;20334;-53
2021/11/15 01:37:49;;;;;;;;;;;18.10;73.10;;;;;;5074252;28;20326;-55
2021/11/15 01:40:18;;;;;;;;;;;18.10;73.10;;;;;;5074169;28;20382;-50
2021/11/15 01:42:45;;;;;;;;;;;18.10;73.10;;;;;;5073811;28;19966;-53
2021/11/15 01:45:14;;;;;;;;;;;18.10;73.10;;;;;;5073827;28;20410;-47
2021/11/15 01:47:41;;;;;;;;;;;18.10;73.10;;;;;;5073790;28;19971;-51
2021/11/15 01:50:10;;;;;;;;;;;18.10;73.10;;;;;;5074097;28;19928;-46
2021/11/15 01:52:40;;;;;;;;;;;18.10;73.10;;;;;;5070325;28;19931;-50
2021/11/15 01:55:07;;;;;;;;;;;18.10;73.10;;;;;;5076962;28;20774;-54
2021/11/15 01:57:35;;;;;;;;;;;18.10;73.20;;;;;;5094249;28;19924;-48
2021/11/15 02:00:08;;;;;;;;;;;18.10;73.20;;;;;;5093867;28;20375;-49
2021/11/15 02:02:35;;;;;;;;;;;18.10;73.10;;;;;;5094158;28;19987;-53
2021/11/15 02:05:03;;;;;;;;;;;18.10;73.10;;;;;;5093661;28;19931;-50
2021/11/15 02:07:30;;;;;;;;;;;18.10;73.20;;;;;;5091157;28;19924;-48
2021/11/15 02:09:57;;;;;;;;;;;18.10;73.20;;;;;;5075899;28;19930;-49
2021/11/15 02:12:27;;;;;;;;;;;18.10;73.10;;;;;;5094057;28;19924;-50
2021/11/15 02:14:54;;;;;;;;;;;18.10;73.20;;;;;;5094005;28;20264;-48
2021/11/15 02:17:21;;;;;;;;;;;18.10;73.20;;;;;;5075853;28;19930;-46
2021/11/15 02:19:48;;;;;;;;;;;18.10;73.20;;;;;;5094006;28;20319;-49
2021/11/15 02:22:16;;;;;;;;;;;18.10;73.20;;;;;;5079824;28;20363;-51
2021/11/15 02:24:46;;;;;;;;;;;18.10;73.20;;;;;;5077543;28;19924;-48
2021/11/15 02:27:12;;;;;;;;;;;18.10;73.20;;;;;;5077764;28;20329;-51
2021/11/15 02:29:40;;;;;;;;;;;18.10;73.20;;;;;;5077729;28;20295;-52
2021/11/15 02:32:07;;;;;;;;;;;18.10;73.20;;;;;;5059610;28;19925;-48
2021/11/15 02:34:34;;;;;;;;;;;18.10;73.20;;;;;;5059437;28;20401;-47
2021/11/15 02:37:01;;;;;;;;;;;18.10;73.20;;;;;;5085373;28;19928;-49
2021/11/15 02:39:28;;;;;;;;;;;18.10;73.20;;;;;;5097485;28;19967;-47
2021/11/15 02:41:56;;;;;;;;;;;18.10;73.20;;;;;;5097433;28;19930;-52
2021/11/15 02:44:25;;;;;;;;;;;18.10;73.20;;;;;;5097363;28;19924;-49
2021/11/15 02:46:52;;;;;;;;;;;18.10;73.20;;;;;;5097615;28;19924;-51
2021/11/15 02:49:19;;;;;;;;;;;18.10;73.20;;;;;;5098378;28;20314;-46
2021/11/15 02:51:48;;;;;;;;;;;18.10;73.20;;;;;;5060516;28;20291;-52
2021/11/15 02:54:16;;;;;;;;;;;18.10;73.20;;;;;;5096934;28;19974;-50
2021/11/15 02:56:43;;;;;;;;;;;18.10;73.20;;;;;;5097189;28;19924;-48
2021/11/15 02:59:10;;;;;;;;;;;18.10;73.20;;;;;;5097087;28;19963;-51
2021/11/15 03:01:36;;;;;;;;;;;18.10;73.20;;;;;;5097367;28;19928;-51
2021/11/15 03:04:04;;;;;;;;;;;18.10;73.20;;;;;;5097197;28;19923;-53
2021/11/15 03:06:31;;;;;;;;;;;18.10;73.20;;;;;;5094319;28;19932;-49
2021/11/15 03:08:58;;;;;;;;;;;18.10;73.20;;;;;;5096908;28;19924;-54
2021/11/15 03:11:25;;;;;;;;;;;18.10;73.20;;;;;;5096866;28;19930;-51
2021/11/15 03:13:52;;;;;;;;;;;18.10;73.20;;;;;;5097105;28;20341;-50
2021/11/15 03:16:19;;;;;;;;;;;18.10;73.20;;;;;;5097044;28;19947;-50
2021/11/15 03:18:46;;;;;;;;;;;18.10;73.20;;;;;;5096750;28;20383;-47
2021/11/15 03:21:19;;;;;;;;;;;18.10;73.20;;;;;;5096704;28;19930;-52
2021/11/15 03:23:48;;;;;;;;;;;18.10;73.20;;;;;;5095914;28;19930;-50
2021/11/15 03:26:15;;;;;;;;;;;18.10;73.20;;;;;;5096629;28;19924;-48
2021/11/15 03:28:44;;;;;;;;;;;18.10;73.20;;;;;;5096523;28;19974;-46
2021/11/15 03:31:16;;;;;;;;;;;18.10;73.20;;;;;;5096836;28;20329;-47
2021/11/15 03:33:44;;;;;;;;;;;18.10;73.20;;;;;;5096594;28;19936;-49
2021/11/15 03:36:11;;;;;;;;;;;18.10;73.20;;;;;;5096585;28;20346;-53
2021/11/15 03:38:38;;;;;;;;;;;18.10;73.20;;;;;;5093734;28;19946;-49
2021/11/15 03:41:05;;;;;;;;;;;18.10;73.20;;;;;;5096632;28;19981;-50
2021/11/15 03:43:32;;;;;;;;;;;18.10;73.30;;;;;;5096266;28;20424;-49
2021/11/15 03:46:00;;;;;;;;;;;18.00;73.10;;;;;;5096566;28;20337;-49
2021/11/15 03:48:27;;;;;;;;;;;18.10;73.20;;;;;;5096499;28;19962;-53
2021/11/15 03:50:55;;;;;;;;;;;18.10;73.30;;;;;;5096441;28;19956;-53
2021/11/15 03:53:24;;;;;;;;;;;18.10;73.20;;;;;;5093290;28;19958;-52
2021/11/15 03:55:51;;;;;;;;;;;18.10;73.20;;;;;;5095907;28;19924;-52
2021/11/15 03:58:19;;;;;;;;;;;18.10;73.30;;;;;;5096299;28;19924;-52
2021/11/15 04:00:47;;;;;;;;;;;18.10;73.40;;;;;;5095941;28;19971;-52
2021/11/15 04:03:18;;;;;;;;;;;18.10;73.20;;;;;;5096085;28;20341;-53
2021/11/15 04:05:50;;;;;;;;;;;18.10;73.20;;;;;;5096185;28;20329;-55
2021/11/15 04:08:17;;;;;;;;;;;18.10;73.20;;;;;;5094150;28;19979;-54
2021/11/15 04:10:45;;;;;;;;;;;18.10;73.20;;;;;;5095745;28;19924;-54
2021/11/15 04:13:24;;;;;;;;;;;18.10;73.20;;;;;;5096004;28;20288;-54
2021/11/15 04:15:53;;;;;;;;;;;18.10;73.20;;;;;;5095899;28;19930;-55
2021/11/15 04:18:22;;;;;;;;;;;18.10;73.20;;;;;;5095594;28;19924;-55
2021/11/15 04:20:50;;;;;;;;;;;18.10;73.20;;;;;;5095846;28;19990;-55
2021/11/15 04:23:18;;;;;;;;;;;18.10;73.20;;;;;;5083440;28;19970;-56
2021/11/15 04:25:45;;;;;;;;;;;18.10;73.20;;;;;;5075246;28;20322;-55
2021/11/15 04:28:12;;;;;;;;;;;18.10;73.20;;;;;;5075448;28;19928;-53
2021/11/15 04:30:39;;;;;;;;;;;18.00;73.10;;;;;;5075689;28;20398;-52
2021/11/15 04:33:06;;;;;;;;;;;18.10;73.30;;;;;;5075265;28;19994;-53
2021/11/15 04:35:34;;;;;;;;;;;18.10;73.20;;;;;;5075235;28;19925;-55
2021/11/15 04:38:02;;;;;;;;;;;18.10;73.30;;;;;;5073988;28;19960;-55
2021/11/15 04:40:29;;;;;;;;;;;18.10;73.30;;;;;;5074895;28;19924;-50
2021/11/15 04:42:56;;;;;;;;;;;18.10;73.30;;;;;;5075182;28;19928;-45
2021/11/15 04:45:23;;;;;;;;;;;18.10;73.30;;;;;;5056586;28;19931;-48
2021/11/15 04:47:50;;;;;;;;;;;18.10;73.20;;;;;;5074338;28;19928;-48
2021/11/15 04:50:17;;;;;;;;;;;18.10;73.20;;;;;;5074689;28;19924;-50
2021/11/15 04:52:44;;;;;;;;;;;18.10;73.20;;;;;;5073284;28;19928;-51
2021/11/15 04:55:13;;;;;;;;;;;18.10;73.20;;;;;;5074609;28;20272;-52
2021/11/15 04:57:40;;;;;;;;;;;18.10;73.20;;;;;;5074597;28;20435;-48
2021/11/15 05:00:08;;;;;;;;;;;18.10;73.20;;;;;;5074807;28;19925;-51
2021/11/15 05:02:36;;;;;;;;;;;18.10;73.30;;;;;;5074787;28;20334;-51
2021/11/15 05:05:04;;;;;;;;;;;18.10;73.20;;;;;;5074739;28;20310;-48
2021/11/15 05:07:31;;;;;;;;;;;18.10;73.20;;;;;;5056519;28;19978;-47
2021/11/15 05:09:59;;;;;;;;;;;18.10;73.30;;;;;;5074836;28;19924;-54
2021/11/15 05:12:25;;;;;;;;;;;18.10;73.30;;;;;;5074312;28;20391;-53
2021/11/15 05:14:52;;;;;;;;;;;18.10;73.20;;;;;;5074203;28;19928;-51
2021/11/15 05:17:20;;;;;;;;;;;18.00;73.10;;;;;;5074534;28;19925;-48
2021/11/15 05:19:48;;;;;;;;;;;18.10;73.30;;;;;;5074172;28;19924;-55
2021/11/15 05:22:16;;;;;;;;;;;18.10;73.20;;;;;;5074116;28;20011;-52
2021/11/15 05:24:43;;;;;;;;;;;18.10;73.20;;;;;;5073550;28;19971;-50
2021/11/15 05:27:10;;;;;;;;;;;18.10;73.20;;;;;;5074380;28;19931;-53
2021/11/15 05:29:37;;;;;;;;;;;18.10;73.20;;;;;;5074031;28;19971;-50
2021/11/15 05:32:04;;;;;;;;;;;18.10;73.20;;;;;;5073990;28;19924;-48
2021/11/15 05:34:31;;;;;;;;;;;18.00;73.10;;;;;;5073912;28;19975;-49
2021/11/15 05:36:58;;;;;;;;;;;18.10;73.20;;;;;;5073838;28;19967;-51
2021/11/15 05:39:25;;;;;;;;;;;18.10;73.20;;;;;;5073260;28;19974;-51
2021/11/15 05:41:52;;;;;;;;;;;18.10;73.30;;;;;;5074734;28;19925;-48
2021/11/15 05:44:19;;;;;;;;;;;18.10;73.20;;;;;;5056475;28;19924;-52
2021/11/15 05:46:46;;;;;;;;;;;18.10;73.20;;;;;;5073827;28;19978;-52
2021/11/15 05:49:13;;;;;;;;;;;18.10;73.20;;;;;;5073784;28;19933;-54
2021/11/15 05:51:40;;;;;;;;;;;18.10;73.20;;;;;;5073752;28;19925;-50
2021/11/15 05:54:07;;;;;;;;;;;18.10;73.20;;;;;;5072659;28;19928;-51
2021/11/15 05:56:34;;;;;;;;;;;18.10;73.20;;;;;;5055733;28;19978;-55
2021/11/15 05:59:01;;;;;;;;;;;18.10;73.20;;;;;;5073788;28;19925;-46
2021/11/15 06:01:28;;;;;;;;;;;18.10;73.20;;;;;;5073660;28;19929;-53
2021/11/15 06:03:55;;;;;;;;;;;18.10;73.20;;;;;;5073518;28;19924;-50
2021/11/15 06:06:22;;;;;;;;;;;18.10;73.20;;;;;;5073943;28;19993;-47
2021/11/15 06:08:49;;;;;;;;;;;18.00;73.10;;;;;;5073420;28;20011;-52
2021/11/15 06:11:18;;;;;;;;;;;18.10;73.20;;;;;;5055817;28;19964;-54
2021/11/15 06:13:45;;;;;;;;;;;18.00;73.10;;;;;;5055808;28;19974;-48
2021/11/15 06:16:12;;;;;;;;;;;18.10;73.20;;;;;;5073754;28;19925;-51
2021/11/15 06:18:41;;;;;;;;;;;18.10;73.20;;;;;;5073524;28;19924;-48
2021/11/15 06:21:08;;;;;;;;;;;18.10;73.20;;;;;;5073689;28;19956;-47
2021/11/15 06:23:35;;;;;;;;;;;18.10;73.20;;;;;;5072596;28;19950;-49
2021/11/15 06:26:02;;;;;;;;;;;18.10;73.20;;;;;;5073964;28;19929;-50
2021/11/15 06:28:29;;;;;;;;;;;18.10;73.20;;;;;;5073703;28;19978;-55
2021/11/15 06:30:56;;;;;;;;;;;18.00;73.80;;;;;;5073690;28;19925;-54
2021/11/15 06:33:23;;;;;;;;;;;18.10;73.20;;;;;;5073203;28;19978;-49
2021/11/15 06:35:50;;;;;;;;;;;18.10;73.10;;;;;;5073262;28;19970;-49
2021/11/15 06:38:18;;;;;;;;;;;18.10;73.10;;;;;;5073170;28;19955;-53
2021/11/15 06:40:45;;;;;;;;;;;18.10;73.10;;;;;;5090234;28;19953;-51
2021/11/15 06:43:12;;;;;;;;;;;18.10;73.10;;;;;;5093736;28;19977;-53
2021/11/15 06:45:39;;;;;;;;;;;18.10;73.10;;;;;;5093423;28;19924;-50
2021/11/15 06:48:06;;;;;;;;;;;18.10;73.10;;;;;;5093329;28;19924;-53
2021/11/15 06:50:33;;;;;;;;;;;18.10;73.10;;;;;;5076011;28;20290;-52
2021/11/15 06:53:00;;;;;;;;;;;18.10;73.10;;;;;;5093413;28;20322;-53
2021/11/15 06:55:27;;;;;;;;;;;18.10;73.10;;;;;;5090303;28;19970;-48
2021/11/15 06:57:54;;;;;;;;;;;18.10;73.10;;;;;;5093817;28;19924;-51
2021/11/15 07:00:22;;;;;;;;;;;18.10;73.10;;;;;;5093232;28;19924;-47
2021/11/15 07:02:50;;;;;;;;;;;18.10;73.00;;;;;;5093404;28;19990;-53
2021/11/15 07:05:18;;;;;;;;;;;18.10;73.00;;;;;;5075794;28;19931;-51
2021/11/15 07:07:45;;;;;;;;;;;18.10;73.00;;;;;;5075652;28;19924;-55
2021/11/15 07:10:13;;;;;;;;;;;18.10;73.00;;;;;;5092570;28;19970;-49
2021/11/15 07:12:41;;;;;;;;;;;18.10;73.00;;;;;;5097120;28;19925;-51
2021/11/15 07:15:09;;;;;;;;;;;18.10;73.00;;;;;;5097113;28;19977;-48
2021/11/15 07:17:36;;;;;;;;;;;18.10;73.00;;;;;;5096717;28;19931;-49
2021/11/15 07:20:04;;;;;;;;;;;18.10;73.00;;;;;;5096992;28;19928;-50
2021/11/15 07:22:32;;;;;;;;;;;18.10;73.00;;;;;;5096554;28;19955;-51
2021/11/15 07:24:59;;;;;;;;;;;18.10;72.90;;;;;;5094320;28;19924;-50
2021/11/15 07:27:27;;;;;;;;;;;18.10;72.90;;;;;;5096787;28;20337;-52
2021/11/15 07:29:54;;;;;;;;;;;18.20;73.00;;;;;;5096528;28;19924;-51
2021/11/15 07:32:21;;;;;;;;;;;18.10;72.90;;;;;;5096463;28;19924;-52
2021/11/15 07:34:48;;;;;;;;;;;18.10;72.90;;;;;;5096804;28;19924;-54
2021/11/15 07:37:15;;;;;;;;;;;18.10;72.90;;;;;;5096325;28;20402;-49
2021/11/15 07:39:42;;;;;;;;;;;18.20;73.00;;;;;;5093561;28;20375;-45
2021/11/15 07:42:11;;;;;;;;;;;18.20;73.00;;;;;;5097387;28;20271;-52
2021/11/15 07:44:39;;;;;;;;;;;18.20;73.00;;;;;;5096112;28;19974;-53
2021/11/15 07:47:06;;;;;;;;;;;18.20;72.90;;;;;;5096132;28;19924;-53
2021/11/15 07:49:33;;;;;;;;;;;18.20;72.90;;;;;;5096299;28;19973;-50
2021/11/15 07:52:01;;;;;;;;;;;18.20;72.90;;;;;;5095994;28;19974;-53
2021/11/15 07:54:28;;;;;;;;;;;18.20;72.90;;;;;;5092584;28;19947;-54
2021/11/15 07:56:55;;;;;;;;;;;18.20;72.80;;;;;;5075462;28;19971;-50
2021/11/15 07:59:22;;;;;;;;;;;18.20;72.80;;;;;;5075805;28;19924;-52
2021/11/15 08:01:50;;;;;;;;;;;18.20;72.80;;;;;;5075637;28;20379;-54
2021/11/15 08:04:18;;;;;;;;;;;18.20;72.70;;;;;;5075705;28;19939;-46
2021/11/15 08:06:45;;;;;;;;;;;18.20;72.70;;;;;;5076137;28;19974;-54
2021/11/15 08:09:12;;;;;;;;;;;18.20;72.70;;;;;;5075467;28;20041;-51
2021/11/15 08:11:42;;;;;;;;;;;18.20;72.70;;;;;;5092035;28;19953;-49
2021/11/15 08:14:09;;;;;;;;;;;18.20;72.70;;;;;;5095922;28;19977;-50
2021/11/15 08:16:36;;;;;;;;;;;18.20;72.60;;;;;;5096600;28;19973;-51
2021/11/15 08:19:04;;;;;;;;;;;18.20;72.60;;;;;;5095772;28;20287;-48
2021/11/15 08:21:31;;;;;;;;;;;18.20;72.50;;;;;;5095240;28;19969;-54
2021/11/15 08:24:18;;;;;;;;;;;18.30;72.60;;;;;;5095406;28;19924;-51
2021/11/15 08:26:51;;;;;;;;;;;18.30;72.50;;;;;;5034627;28;19925;-49
2021/11/15 08:29:19;;;;;;;;;;;18.30;72.50;;;;;;5055010;28;20445;-53
2021/11/15 08:31:46;;;;;;;;;;;18.30;72.40;;;;;;5055574;28;19986;-52
2021/11/15 08:34:14;;;;;;;;;;;18.30;72.40;;;;;;5054895;28;19971;-52
2021/11/15 08:36:42;;;;;;;;;;;18.30;72.40;;;;;;5054932;28;19925;-53
2021/11/15 08:39:11;;;;;;;;;;;18.30;72.30;;;;;;5055258;28;19925;-52
2021/11/15 08:41:40;;;;;;;;;;;18.30;72.30;;;;;;5085054;28;19924;-51
2021/11/15 08:44:10;;;;;;;;;;;18.40;72.30;;;;;;5095321;28;19924;-47
2021/11/15 08:46:39;;;;;;;;;;;18.40;73.00;;;;;;5095273;28;20286;-52
2021/11/15 08:49:08;;;;;;;;;;;18.40;72.30;;;;;;5095327;28;19927;-53
2021/11/15 08:51:36;;;;;;;;;;;18.40;72.20;;;;;;5077355;28;19924;-50
2021/11/15 08:54:04;;;;;;;;;;;18.40;72.10;;;;;;5095039;28;19924;-50
2021/11/15 08:56:32;;;;;;;;;;;18.50;72.10;;;;;;5092055;28;19924;-53
2021/11/15 08:59:19;;;;;;;;;;;18.50;72.10;;;;;;5095479;28;20011;-56
2021/11/15 09:01:47;;;;;;;;;;;18.40;71.90;;;;;;5094933;28;19924;-46
2021/11/15 09:04:14;;;;;;;;;;;18.50;71.90;;;;;;5094828;28;20302;-55
2021/11/15 09:06:42;;;;;;;;;;;18.50;71.80;;;;;;5094487;28;19976;-52
2021/11/15 09:09:14;;;;;;;;;;;18.50;71.80;;;;;;5095383;28;19997;-48
2021/11/15 09:11:42;;;;;;;;;;;18.50;71.70;;;;;;5092195;28;19924;-47
2021/11/15 09:14:09;;;;;;;;;;;18.50;71.70;;;;;;5094861;28;19924;-53
2021/11/15 09:16:36;;;;;;;;;;;18.50;71.70;;;;;;5094397;28;19924;-50
2021/11/15 09:19:04;;;;;;;;;;;18.50;71.70;;;;;;5094469;28;20379;-51
2021/11/15 09:21:31;;;;;;;;;;;18.50;71.70;;;;;;5094397;28;19974;-51
2021/11/15 09:23:58;;;;;;;;;;;18.50;71.70;;;;;;5076552;28;19924;-46
2021/11/15 09:26:27;;;;;;;;;;;18.50;71.70;;;;;;5092065;28;19924;-53
2021/11/15 09:28:55;;;;;;;;;;;18.50;71.70;;;;;;5094564;28;19951;-54
2021/11/15 09:31:23;;;;;;;;;;;18.50;71.70;;;;;;5093981;28;19931;-49
2021/11/15 09:33:51;;;;;;;;;;;18.50;71.70;;;;;;5093964;28;20294;-51
2021/11/15 09:36:22;;;;;;;;;;;18.50;71.70;;;;;;5094093;28;19928;-55
2021/11/15 09:38:53;;;;;;;;;;;18.50;71.70;;;;;;5094401;28;19970;-55
2021/11/15 09:41:21;;;;;;;;;;;18.50;71.70;;;;;;5084448;28;20395;-50
2021/11/15 09:43:48;;;;;;;;;;;18.50;71.70;;;;;;5073819;28;19924;-49
2021/11/15 09:46:18;;;;;;;;;;;18.50;71.70;;;;;;5073679;28;19925;-52
2021/11/15 09:48:47;;;;;;;;;;;18.50;71.70;;;;;;5073550;28;19925;-53
2021/11/15 09:51:15;;;;;;;;;;;18.50;71.70;;;;;;5073767;28;19975;-51
2021/11/15 09:53:42;;;;;;;;;;;18.50;71.70;;;;;;5073804;28;19947;-52
2021/11/15 09:56:10;;;;;;;;;;;18.50;71.70;;;;;;5076300;28;19969;-53
2021/11/15 09:58:37;;;;;;;;;;;18.50;71.60;;;;;;5093696;28;19969;-51
2021/11/15 10:01:05;;;;;;;;;;;18.50;71.60;;;;;;5093818;28;20391;-49
2021/11/15 10:03:33;;;;;;;;;;;18.50;71.60;;;;;;5093961;28;19931;-50
2021/11/15 10:06:00;;;;;;;;;;;18.50;71.60;;;;;;5093611;28;19924;-49
2021/11/15 10:08:41;;;;;;;;;;;18.50;71.60;;;;;;5076127;28;19924;-48
2021/11/15 10:11:08;;;;;;;;;;;18.50;71.60;;;;;;5091055;28;19933;-54
2021/11/15 10:13:35;;;;;;;;;;;18.50;71.50;;;;;;5094390;28;19924;-46
2021/11/15 10:16:02;;;;;;;;;;;18.50;71.50;;;;;;5094469;28;20314;-49
2021/11/15 10:18:32;;;;;;;;;;;18.50;71.50;;;;;;5093866;28;19925;-47
2021/11/15 10:21:00;;;;;;;;;;;18.50;71.50;;;;;;5093591;28;20429;-50
2021/11/15 10:23:27;;;;;;;;;;;18.50;71.50;;;;;;5093983;28;19924;-47
2021/11/15 10:25:59;;;;;;;;;;;18.50;71.60;;;;;;5091894;28;19977;-49
2021/11/15 10:28:28;;;;;;;;;;;18.50;71.60;;;;;;5053374;28;19979;-47
2021/11/15 10:30:55;;;;;;;;;;;18.50;71.50;;;;;;5053628;28;20019;-50
2021/11/15 10:33:33;;;;;;;;;;;18.50;71.50;;;;;;5053615;28;20015;-46
2021/11/15 10:36:00;;;;;;;;;;;18.50;71.50;;;;;;5053326;28;19925;-48
2021/11/15 10:38:49;;;;;;;;;;;18.50;71.50;;;;;;5053182;28;19974;-51
2021/11/15 10:41:21;;;;;;;;;;;18.50;72.20;;;;;;5054877;28;19932;-45
2021/11/15 10:43:56;;;;;;;;;;;18.50;71.40;;;;;;5073590;28;19924;-52
2021/11/15 10:46:30;;;;;;;;;;;18.50;71.50;;;;;;5077100;28;19924;-52
2021/11/15 10:48:58;;;;;;;;;;;18.50;71.40;;;;;;5077068;28;20387;-51
2021/11/15 10:51:55;;;;;;;;;;;18.50;71.40;;;;;;5059607;28;20268;-46
2021/11/15 10:54:40;;;;;;;;;;;18.50;71.40;;;;;;5077115;28;19929;-51
2021/11/15 10:57:16;;;;;;;;;;;18.50;71.40;;;;;;5075723;28;19925;-48
2021/11/15 10:59:43;;;;;;;;;;;18.50;71.40;;;;;;5076912;28;19954;-50
2021/11/15 11:02:26;;;;;;;;;;;18.50;71.40;;;;;;5076722;28;20359;-47
2021/11/15 11:05:23;;;;;;;;;;;18.50;71.40;;;;;;5077037;28;20389;-50
2021/11/15 11:08:05;;;;;;;;;;;18.50;71.40;;;;;;5015130;28;20490;-51
2021/11/15 11:10:41;;;;;;;;;;;18.50;71.40;;;;;;5014967;28;19925;-50
2021/11/15 11:13:09;;;;;;;;;;;18.50;71.30;;;;;;5013659;28;19929;-46
2021/11/15 11:18:12;;;;;;;;;;;18.50;71.30;;;;;;5014847;28;19932;-54
2021/11/15 11:23:57;;;;;;;;;;;18.50;71.30;;;;;;5011777;28;19926;-50
2021/11/15 11:26:28;;;;;;;;;;;18.50;71.30;;;;;;5014698;28;19996;-52
2021/11/15 11:28:57;;;;;;;;;;;18.50;71.20;;;;;;5014461;28;19956;-52
2021/11/15 11:31:26;;;;;;;;;;;18.50;71.20;;;;;;5014576;28;19929;-53
2021/11/15 11:33:53;;;;;;;;;;;18.50;71.10;;;;;;5014301;28;19931;-54
2021/11/15 11:36:20;;;;;;;;;;;18.50;71.10;;;;;;5014459;28;19999;-53
2021/11/15 11:38:47;;;;;;;;;;;18.50;71.10;;;;;;5014520;28;20040;-51
2021/11/15 11:41:15;;;;;;;;;;;18.50;71.20;;;;;;5014318;28;19949;-48
2021/11/15 11:43:43;;;;;;;;;;;18.50;71.10;;;;;;5030044;28;19931;-53
2021/11/15 11:46:12;;;;;;;;;;;18.50;71.10;;;;;;5076047;28;19963;-54
2021/11/15 11:48:39;;;;;;;;;;;18.50;71.10;;;;;;5075882;28;20011;-50
2021/11/15 11:51:06;;;;;;;;;;;18.50;71.10;;;;;;5076179;28;19924;-54
2021/11/15 11:53:35;;;;;;;;;;;18.50;71.10;;;;;;5075669;28;20447;-47
2021/11/15 11:56:12;;;;;;;;;;;18.50;71.00;;;;;;5075126;28;20367;-50
2021/11/15 11:58:40;;;;;;;;;;;18.50;71.00;;;;;;5074650;28;19925;-47
2021/11/15 12:01:15;;;;;;;;;;;18.50;71.00;;;;;;5075657;28;20380;-48
2021/11/15 12:04:21;;;;;;;;;;;18.50;71.00;;;;;;5057963;28;20069;-52
2021/11/15 12:06:49;;;;;;;;;;;18.50;71.00;;;;;;5014091;28;19932;-51
2021/11/15 12:09:22;;;;;;;;;;;18.50;71.00;;;;;;4998457;28;20401;-52
2021/11/15 12:12:00;;;;;;;;;;;18.50;70.90;;;;;;5013862;28;20324;-53
2021/11/15 12:14:37;;;;;;;;;;;18.50;71.00;;;;;;5013747;28;19930;-51
2021/11/15 12:17:06;;;;;;;;;;;18.50;71.00;;;;;;5013577;28;20542;-51
2021/11/15 12:19:48;;;;;;;;;;;18.50;70.90;;;;;;5013643;28;19932;-51
2021/11/15 12:22:20;;;;;;;;;;;18.50;71.00;;;;;;5013833;28;19987;-53
2021/11/15 12:25:17;;;;;;;;;;;18.50;71.00;;;;;;5013628;28;19930;-52
2021/11/15 12:27:49;;;;;;;;;;;18.50;70.90;;;;;;5004448;28;19929;-55
2021/11/15 12:30:22;;;;;;;;;;;18.50;70.90;;;;;;5013418;28;19925;-54
2021/11/15 12:33:07;;;;;;;;;;;18.50;70.90;;;;;;5013293;28;19976;-47
2021/11/15 12:35:55;;;;;;;;;;;18.50;70.90;;;;;;5013393;28;19929;-53
2021/11/15 12:38:41;;;;;;;;;;;18.50;70.90;;;;;;5063209;28;20371;-47
2021/11/15 12:41:34;;;;;;;;;;;18.50;70.90;;;;;;5075169;28;19970;-52
2021/11/15 12:46:37;;;;;;;;;;;18.50;70.90;;;;;;5075181;28;20326;-48
2021/11/15 12:49:22;;;;;;;;;;;18.50;70.90;;;;;;5075093;28;19924;-51
2021/11/15 12:51:49;;;;;;;;;;;18.50;70.90;;;;;;5074677;28;19932;-45
2021/11/15 12:54:17;;;;;;;;;;;18.50;70.90;;;;;;5074460;28;19955;-50
2021/11/15 12:56:44;;;;;;;;;;;18.50;70.90;;;;;;5074532;28;19925;-50
2021/11/15 12:59:11;;;;;;;;;;;18.50;70.90;;;;;;5074627;28;19931;-52
2021/11/15 13:01:38;;;;;;;;;;;18.50;70.90;;;;;;5074578;28;20402;-50
2021/11/15 13:04:07;;;;;;;;;;;18.50;70.90;;;;;;5073697;28;21496;-54
2021/11/15 13:06:35;;;;;;;;;;;18.50;70.90;;;;;;5074170;28;19928;-47
2021/11/15 13:09:02;;;;;;;;;;;18.50;70.90;;;;;;5074155;28;20418;-51
2021/11/15 13:11:29;;;;;;;;;;;18.50;70.90;;;;;;5074681;28;20003;-50
2021/11/15 13:13:56;;;;;;;;;;;18.50;70.90;;;;;;5073409;28;19924;-51
2021/11/15 13:16:24;;;;;;;;;;;18.50;70.90;;;;;;5074239;28;19929;-50
2021/11/15 13:18:52;;;;;;;;;;;18.50;70.90;;;;;;5074475;28;19978;-50
2021/11/15 13:21:19;;;;;;;;;;;18.50;70.90;;;;;;5074370;28;20380;-51
2021/11/15 13:23:47;;;;;;;;;;;18.50;71.00;;;;;;5074386;28;19972;-52
2021/11/15 13:26:14;;;;;;;;;;;18.50;71.00;;;;;;5073940;28;19925;-52
2021/11/15 13:28:41;;;;;;;;;;;18.50;71.00;;;;;;5080456;28;19969;-51
2021/11/15 13:31:08;;;;;;;;;;;18.50;71.00;;;;;;5094261;28;19974;-51
2021/11/15 13:33:36;;;;;;;;;;;18.50;71.00;;;;;;5094075;28;19930;-52
2021/11/15 13:36:04;;;;;;;;;;;18.50;71.00;;;;;;5094484;28;20329;-53
2021/11/15 13:38:32;;;;;;;;;;;18.50;71.00;;;;;;5094331;28;19924;-46
2021/11/15 13:40:59;;;;;;;;;;;18.50;71.00;;;;;;5094340;28;19924;-52
2021/11/15 13:43:27;;;;;;;;;;;18.50;71.00;;;;;;5089189;28;20973;-55
2021/11/15 13:45:55;;;;;;;;;;;18.50;71.00;;;;;;5073740;28;19928;-48
2021/11/15 13:48:27;;;;;;;;;;;18.50;71.00;;;;;;5074070;28;19946;-53
2021/11/15 13:50:54;;;;;;;;;;;18.50;71.00;;;;;;5073661;28;19924;-51
2021/11/15 13:53:21;;;;;;;;;;;18.50;71.00;;;;;;5073787;28;19947;-54
2021/11/15 13:55:49;;;;;;;;;;;18.50;71.00;;;;;;5073469;28;19924;-48
2021/11/15 13:58:16;;;;;;;;;;;18.50;71.10;;;;;;5073746;28;19925;-52
2021/11/15 14:00:43;;;;;;;;;;;18.50;71.10;;;;;;5073927;28;19924;-52
2021/11/15 14:03:11;;;;;;;;;;;18.50;71.10;;;;;;5073514;28;19924;-53
2021/11/15 14:05:38;;;;;;;;;;;18.50;71.10;;;;;;5073940;28;19931;-47
2021/11/15 14:08:06;;;;;;;;;;;18.50;71.10;;;;;;5073580;28;19925;-47
2021/11/15 14:10:33;;;;;;;;;;;18.50;71.10;;;;;;5073624;28;19959;-54
2021/11/15 14:13:00;;;;;;;;;;;18.50;71.10;;;;;;5055801;28;19955;-53
2021/11/15 14:15:27;;;;;;;;;;;18.50;71.10;;;;;;5073187;28;20292;-49
2021/11/15 14:17:55;;;;;;;;;;;18.50;71.10;;;;;;5074266;28;20346;-48
2021/11/15 14:20:25;;;;;;;;;;;18.50;71.20;;;;;;5077988;28;19928;-53
2021/11/15 14:22:53;;;;;;;;;;;18.50;71.10;;;;;;5077457;28;19928;-48
2021/11/15 14:25:20;;;;;;;;;;;18.40;71.10;;;;;;5077864;28;19924;-47
2021/11/15 14:28:03;;;;;;;;;;;18.50;71.20;;;;;;5077595;28;19925;-52
2021/11/15 14:30:31;;;;;;;;;;;18.50;71.20;;;;;;5059213;28;19924;-48
2021/11/15 14:32:58;;;;;;;;;;;18.50;71.20;;;;;;5077321;28;20027;-48
2021/11/15 14:35:25;;;;;;;;;;;18.40;71.10;;;;;;5077383;28;19928;-47